sensor_id;sensor_type;location;lat;lon;timestamp;P1;durP1;ratioP1;P2;durP2;ratioP2
22965;SDS011;11649;48.090;9.754;2023-05-06T00:02:11;20.48;;;14.48;;
22965;SDS011;11649;48.090;9.754;2023-05-06T00:04:38;17.30;;;14.95;;
22965;SDS011;11649;48.090;9.754;2023-05-06T00:07:06;19.90;;;13.30;;
22965;SDS011;11649;48.090;9.754;2023-05-06T00:09:33;17.98;;;15.00;;
22965;SDS011;11649;48.090;9.754;2023-05-06T00:12:00;17.13;;;14.85;;
22965;SDS011;11649;48.090;9.754;2023-05-06T00:14:27;17.98;;;14.60;;
22965;SDS011;11649;48.090;9.754;2023-05-06T00:16:53;15.90;;;14.20;;
22965;SDS011;11649;48.090;9.754;2023-05-06T00:19:20;14.73;;;13.07;;
22965;SDS011;11649;48.090;9.754;2023-05-06T00:21:47;15.30;;;12.68;;
22965;SDS011;11649;48.090;9.754;2023-05-06T00:24:14;16.95;;;13.13;;
22965;SDS011;11649;48.090;9.754;2023-05-06T00:26:41;17.05;;;13.57;;
22965;SDS011;11649;48.090;9.754;2023-05-06T00:29:07;14.07;;;12.57;;
22965;SDS011;11649;48.090;9.754;2023-05-06T00:31:34;19.80;;;14.02;;
22965;SDS011;11649;48.090;9.754;2023-05-06T00:34:01;17.85;;;13.95;;
22965;SDS011;11649;48.090;9.754;2023-05-06T00:36:28;16.90;;;13.85;;
22965;SDS011;11649;48.090;9.754;2023-05-06T00:38:55;18.25;;;14.63;;
22965;SDS011;11649;48.090;9.754;2023-05-06T00:41:22;21.60;;;16.27;;
22965;SDS011;11649;48.090;9.754;2023-05-06T00:43:48;22.83;;;15.75;;
22965;SDS011;11649;48.090;9.754;2023-05-06T00:46:15;23.95;;;17.10;;
22965;SDS011;11649;48.090;9.754;2023-05-06T00:48:43;23.73;;;18.38;;
22965;SDS011;11649;48.090;9.754;2023-05-06T00:51:10;19.50;;;15.15;;
22965;SDS011;11649;48.090;9.754;2023-05-06T00:53:37;19.80;;;14.38;;
22965;SDS011;11649;48.090;9.754;2023-05-06T00:56:05;17.85;;;15.05;;
22965;SDS011;11649;48.090;9.754;2023-05-06T00:58:33;18.50;;;14.30;;
22965;SDS011;11649;48.090;9.754;2023-05-06T01:01:00;13.98;;;12.35;;
22965;SDS011;11649;48.090;9.754;2023-05-06T01:03:27;16.35;;;13.07;;
22965;SDS011;11649;48.090;9.754;2023-05-06T01:08:46;16.73;;;14.05;;
22965;SDS011;11649;48.090;9.754;2023-05-06T01:11:23;16.80;;;13.93;;
22965;SDS011;11649;48.090;9.754;2023-05-06T01:13:59;17.38;;;15.52;;
22965;SDS011;11649;48.090;9.754;2023-05-06T01:16:31;17.25;;;15.45;;
22965;SDS011;11649;48.090;9.754;2023-05-06T01:19:01;16.77;;;14.60;;
22965;SDS011;11649;48.090;9.754;2023-05-06T01:21:34;20.92;;;16.00;;
22965;SDS011;11649;48.090;9.754;2023-05-06T01:24:03;17.50;;;15.38;;
22965;SDS011;11649;48.090;9.754;2023-05-06T01:26:29;15.57;;;13.60;;
22965;SDS011;11649;48.090;9.754;2023-05-06T01:28:56;17.85;;;14.82;;
22965;SDS011;11649;48.090;9.754;2023-05-06T01:31:44;16.17;;;14.48;;
22965;SDS011;11649;48.090;9.754;2023-05-06T01:34:17;17.55;;;15.75;;
22965;SDS011;11649;48.090;9.754;2023-05-06T01:36:57;16.52;;;14.70;;
22965;SDS011;11649;48.090;9.754;2023-05-06T01:39:37;15.07;;;13.52;;
22965;SDS011;11649;48.090;9.754;2023-05-06T01:42:06;15.00;;;12.25;;
22965;SDS011;11649;48.090;9.754;2023-05-06T01:44:35;14.35;;;12.95;;
22965;SDS011;11649;48.090;9.754;2023-05-06T01:47:04;13.82;;;12.48;;
22965;SDS011;11649;48.090;9.754;2023-05-06T01:49:32;19.02;;;12.75;;
22965;SDS011;11649;48.090;9.754;2023-05-06T01:51:59;13.70;;;12.40;;
22965;SDS011;11649;48.090;9.754;2023-05-06T01:54:27;15.75;;;14.10;;
22965;SDS011;11649;48.090;9.754;2023-05-06T01:56:54;16.90;;;14.63;;
22965;SDS011;11649;48.090;9.754;2023-05-06T01:59:21;19.08;;;15.05;;
22965;SDS011;11649;48.090;9.754;2023-05-06T02:01:47;17.83;;;14.98;;
22965;SDS011;11649;48.090;9.754;2023-05-06T02:04:14;17.17;;;14.43;;
22965;SDS011;11649;48.090;9.754;2023-05-06T02:06:41;14.23;;;12.43;;
22965;SDS011;11649;48.090;9.754;2023-05-06T02:09:08;18.48;;;14.65;;
22965;SDS011;11649;48.090;9.754;2023-05-06T02:11:34;17.55;;;15.70;;
22965;SDS011;11649;48.090;9.754;2023-05-06T02:14:01;19.85;;;17.10;;
22965;SDS011;11649;48.090;9.754;2023-05-06T02:16:28;15.23;;;13.63;;
22965;SDS011;11649;48.090;9.754;2023-05-06T02:18:55;17.17;;;13.77;;
22965;SDS011;11649;48.090;9.754;2023-05-06T02:21:22;16.90;;;15.20;;
22965;SDS011;11649;48.090;9.754;2023-05-06T02:23:49;16.52;;;14.70;;
22965;SDS011;11649;48.090;9.754;2023-05-06T02:26:15;14.73;;;13.27;;
22965;SDS011;11649;48.090;9.754;2023-05-06T02:28:42;13.90;;;12.45;;
22965;SDS011;11649;48.090;9.754;2023-05-06T02:31:11;14.63;;;11.85;;
22965;SDS011;11649;48.090;9.754;2023-05-06T02:33:40;13.30;;;11.80;;
22965;SDS011;11649;48.090;9.754;2023-05-06T02:36:07;15.32;;;13.75;;
22965;SDS011;11649;48.090;9.754;2023-05-06T02:38:34;12.90;;;11.50;;
22965;SDS011;11649;48.090;9.754;2023-05-06T02:41:00;14.25;;;12.23;;
22965;SDS011;11649;48.090;9.754;2023-05-06T02:43:27;15.43;;;13.82;;
22965;SDS011;11649;48.090;9.754;2023-05-06T02:45:54;15.05;;;13.52;;
22965;SDS011;11649;48.090;9.754;2023-05-06T02:48:21;14.38;;;12.88;;
22965;SDS011;11649;48.090;9.754;2023-05-06T02:50:47;12.70;;;11.27;;
22965;SDS011;11649;48.090;9.754;2023-05-06T02:53:15;12.15;;;10.90;;
22965;SDS011;11649;48.090;9.754;2023-05-06T02:55:41;13.10;;;11.60;;
22965;SDS011;11649;48.090;9.754;2023-05-06T02:58:08;17.42;;;11.07;;
22965;SDS011;11649;48.090;9.754;2023-05-06T03:00:35;12.68;;;11.38;;
22965;SDS011;11649;48.090;9.754;2023-05-06T03:03:02;13.15;;;11.80;;
22965;SDS011;11649;48.090;9.754;2023-05-06T03:05:29;14.88;;;12.35;;
22965;SDS011;11649;48.090;9.754;2023-05-06T03:07:56;11.82;;;10.52;;
22965;SDS011;11649;48.090;9.754;2023-05-06T03:10:23;11.23;;;10.13;;
22965;SDS011;11649;48.090;9.754;2023-05-06T03:12:49;12.57;;;9.45;;
22965;SDS011;11649;48.090;9.754;2023-05-06T03:15:16;12.07;;;10.77;;
22965;SDS011;11649;48.090;9.754;2023-05-06T03:17:43;12.65;;;9.95;;
22965;SDS011;11649;48.090;9.754;2023-05-06T03:20:11;12.68;;;10.15;;
22965;SDS011;11649;48.090;9.754;2023-05-06T03:22:39;11.93;;;9.60;;
22965;SDS011;11649;48.090;9.754;2023-05-06T03:25:07;11.60;;;10.05;;
22965;SDS011;11649;48.090;9.754;2023-05-06T03:27:34;13.40;;;10.70;;
22965;SDS011;11649;48.090;9.754;2023-05-06T03:30:01;15.77;;;10.70;;
22965;SDS011;11649;48.090;9.754;2023-05-06T03:32:29;10.77;;;9.45;;
22965;SDS011;11649;48.090;9.754;2023-05-06T03:34:56;11.60;;;10.40;;
22965;SDS011;11649;48.090;9.754;2023-05-06T03:37:22;13.18;;;11.02;;
22965;SDS011;11649;48.090;9.754;2023-05-06T03:39:49;11.05;;;9.25;;
22965;SDS011;11649;48.090;9.754;2023-05-06T03:42:16;15.00;;;9.13;;
22965;SDS011;11649;48.090;9.754;2023-05-06T03:44:43;12.18;;;10.88;;
22965;SDS011;11649;48.090;9.754;2023-05-06T03:47:09;13.27;;;11.63;;
22965;SDS011;11649;48.090;9.754;2023-05-06T03:49:36;19.02;;;12.18;;
22965;SDS011;11649;48.090;9.754;2023-05-06T03:52:03;14.25;;;12.38;;
22965;SDS011;11649;48.090;9.754;2023-05-06T03:54:30;13.15;;;11.50;;
22965;SDS011;11649;48.090;9.754;2023-05-06T03:56:57;15.77;;;12.35;;
22965;SDS011;11649;48.090;9.754;2023-05-06T03:59:23;14.95;;;13.35;;
22965;SDS011;11649;48.090;9.754;2023-05-06T04:01:50;17.85;;;13.70;;
22965;SDS011;11649;48.090;9.754;2023-05-06T04:04:17;27.98;;;15.20;;
22965;SDS011;11649;48.090;9.754;2023-05-06T04:06:44;16.90;;;15.20;;
22965;SDS011;11649;48.090;9.754;2023-05-06T04:09:11;15.93;;;14.38;;
22965;SDS011;11649;48.090;9.754;2023-05-06T04:11:37;16.20;;;14.50;;
22965;SDS011;11649;48.090;9.754;2023-05-06T04:14:04;15.65;;;14.10;;
22965;SDS011;11649;48.090;9.754;2023-05-06T04:16:31;16.33;;;14.63;;
22965;SDS011;11649;48.090;9.754;2023-05-06T04:18:57;15.75;;;14.13;;
22965;SDS011;11649;48.090;9.754;2023-05-06T04:21:24;20.58;;;15.18;;
22965;SDS011;11649;48.090;9.754;2023-05-06T04:23:51;20.90;;;16.40;;
22965;SDS011;11649;48.090;9.754;2023-05-06T04:26:19;18.70;;;15.82;;
22965;SDS011;11649;48.090;9.754;2023-05-06T04:28:46;16.85;;;14.27;;
22965;SDS011;11649;48.090;9.754;2023-05-06T04:31:13;16.08;;;14.38;;
22965;SDS011;11649;48.090;9.754;2023-05-06T04:33:40;18.35;;;14.90;;
22965;SDS011;11649;48.090;9.754;2023-05-06T04:36:07;19.83;;;17.00;;
22965;SDS011;11649;48.090;9.754;2023-05-06T04:38:34;22.02;;;18.60;;
22965;SDS011;11649;48.090;9.754;2023-05-06T04:41:02;23.48;;;17.90;;
22965;SDS011;11649;48.090;9.754;2023-05-06T04:43:30;17.92;;;15.23;;
22965;SDS011;11649;48.090;9.754;2023-05-06T04:45:58;16.45;;;14.63;;
22965;SDS011;11649;48.090;9.754;2023-05-06T04:48:25;18.52;;;16.33;;
22965;SDS011;11649;48.090;9.754;2023-05-06T04:50:52;19.63;;;16.92;;
22965;SDS011;11649;48.090;9.754;2023-05-06T04:53:18;19.80;;;17.55;;
22965;SDS011;11649;48.090;9.754;2023-05-06T04:55:45;19.95;;;17.55;;
22965;SDS011;11649;48.090;9.754;2023-05-06T04:58:12;20.65;;;18.42;;
22965;SDS011;11649;48.090;9.754;2023-05-06T05:00:39;17.27;;;15.57;;
22965;SDS011;11649;48.090;9.754;2023-05-06T05:03:06;17.38;;;15.57;;
22965;SDS011;11649;48.090;9.754;2023-05-06T05:05:33;15.75;;;14.25;;
22965;SDS011;11649;48.090;9.754;2023-05-06T05:08:00;15.27;;;13.77;;
22965;SDS011;11649;48.090;9.754;2023-05-06T05:10:26;14.85;;;13.45;;
22965;SDS011;11649;48.090;9.754;2023-05-06T05:12:53;14.32;;;13.02;;
22965;SDS011;11649;48.090;9.754;2023-05-06T05:15:20;15.48;;;13.98;;
22965;SDS011;11649;48.090;9.754;2023-05-06T05:17:48;16.52;;;14.85;;
22965;SDS011;11649;48.090;9.754;2023-05-06T05:20:15;18.00;;;16.30;;
22965;SDS011;11649;48.090;9.754;2023-05-06T05:22:42;16.30;;;14.70;;
22965;SDS011;11649;48.090;9.754;2023-05-06T05:25:09;16.48;;;14.77;;
22965;SDS011;11649;48.090;9.754;2023-05-06T05:27:36;16.25;;;14.50;;
22965;SDS011;11649;48.090;9.754;2023-05-06T05:30:03;13.90;;;12.50;;
22965;SDS011;11649;48.090;9.754;2023-05-06T05:32:30;14.98;;;13.50;;
22965;SDS011;11649;48.090;9.754;2023-05-06T05:34:56;14.48;;;13.07;;
22965;SDS011;11649;48.090;9.754;2023-05-06T05:37:23;14.43;;;13.02;;
22965;SDS011;11649;48.090;9.754;2023-05-06T05:39:50;15.50;;;14.05;;
22965;SDS011;11649;48.090;9.754;2023-05-06T05:42:17;13.95;;;12.65;;
22965;SDS011;11649;48.090;9.754;2023-05-06T05:44:43;17.25;;;14.32;;
22965;SDS011;11649;48.090;9.754;2023-05-06T05:47:11;16.90;;;15.13;;
22965;SDS011;11649;48.090;9.754;2023-05-06T05:49:37;16.90;;;15.20;;
22965;SDS011;11649;48.090;9.754;2023-05-06T05:52:04;13.38;;;12.07;;
22965;SDS011;11649;48.090;9.754;2023-05-06T05:54:32;14.68;;;13.20;;
22965;SDS011;11649;48.090;9.754;2023-05-06T05:56:59;15.13;;;13.63;;
22965;SDS011;11649;48.090;9.754;2023-05-06T05:59:26;16.75;;;15.05;;
22965;SDS011;11649;48.090;9.754;2023-05-06T06:01:53;18.55;;;15.02;;
22965;SDS011;11649;48.090;9.754;2023-05-06T06:04:20;15.93;;;14.32;;
22965;SDS011;11649;48.090;9.754;2023-05-06T06:06:47;14.07;;;12.18;;
22965;SDS011;11649;48.090;9.754;2023-05-06T06:09:14;15.38;;;13.77;;
22965;SDS011;11649;48.090;9.754;2023-05-06T06:11:42;15.18;;;13.55;;
22965;SDS011;11649;48.090;9.754;2023-05-06T06:14:08;14.95;;;13.45;;
22965;SDS011;11649;48.090;9.754;2023-05-06T06:16:36;17.80;;;14.30;;
22965;SDS011;11649;48.090;9.754;2023-05-06T06:19:03;14.82;;;13.30;;
22965;SDS011;11649;48.090;9.754;2023-05-06T06:21:30;14.00;;;12.25;;
22965;SDS011;11649;48.090;9.754;2023-05-06T06:23:57;13.68;;;12.38;;
22965;SDS011;11649;48.090;9.754;2023-05-06T06:26:24;13.82;;;12.30;;
22965;SDS011;11649;48.090;9.754;2023-05-06T06:28:51;15.50;;;13.90;;
22965;SDS011;11649;48.090;9.754;2023-05-06T06:31:17;13.90;;;12.45;;
22965;SDS011;11649;48.090;9.754;2023-05-06T06:33:44;13.00;;;11.57;;
22965;SDS011;11649;48.090;9.754;2023-05-06T06:36:11;13.43;;;12.00;;
22965;SDS011;11649;48.090;9.754;2023-05-06T06:38:38;13.00;;;11.70;;
22965;SDS011;11649;48.090;9.754;2023-05-06T06:41:05;13.50;;;12.20;;
22965;SDS011;11649;48.090;9.754;2023-05-06T06:43:32;12.05;;;10.85;;
22965;SDS011;11649;48.090;9.754;2023-05-06T06:45:58;12.45;;;10.93;;
22965;SDS011;11649;48.090;9.754;2023-05-06T06:48:26;10.10;;;9.00;;
22965;SDS011;11649;48.090;9.754;2023-05-06T06:50:52;12.35;;;10.75;;
22965;SDS011;11649;48.090;9.754;2023-05-06T06:53:19;9.80;;;8.80;;
22965;SDS011;11649;48.090;9.754;2023-05-06T06:55:46;10.68;;;8.60;;
22965;SDS011;11649;48.090;9.754;2023-05-06T06:58:13;10.57;;;8.38;;
22965;SDS011;11649;48.090;9.754;2023-05-06T07:00:40;10.00;;;8.75;;
22965;SDS011;11649;48.090;9.754;2023-05-06T07:03:07;9.40;;;8.45;;
22965;SDS011;11649;48.090;9.754;2023-05-06T07:05:33;9.13;;;8.20;;
22965;SDS011;11649;48.090;9.754;2023-05-06T07:08:00;10.20;;;7.97;;
22965;SDS011;11649;48.090;9.754;2023-05-06T07:10:27;9.00;;;8.10;;
22965;SDS011;11649;48.090;9.754;2023-05-06T07:12:54;9.18;;;8.27;;
22965;SDS011;11649;48.090;9.754;2023-05-06T07:15:20;9.00;;;8.10;;
22965;SDS011;11649;48.090;9.754;2023-05-06T07:17:47;9.25;;;7.97;;
22965;SDS011;11649;48.090;9.754;2023-05-06T07:20:14;8.65;;;7.75;;
22965;SDS011;11649;48.090;9.754;2023-05-06T07:22:41;8.60;;;7.70;;
22965;SDS011;11649;48.090;9.754;2023-05-06T07:25:08;7.55;;;6.85;;
22965;SDS011;11649;48.090;9.754;2023-05-06T07:27:36;8.10;;;7.30;;
22965;SDS011;11649;48.090;9.754;2023-05-06T07:30:03;7.60;;;6.90;;
22965;SDS011;11649;48.090;9.754;2023-05-06T07:32:30;7.82;;;6.72;;
22965;SDS011;11649;48.090;9.754;2023-05-06T07:34:57;7.90;;;7.10;;
22965;SDS011;11649;48.090;9.754;2023-05-06T07:37:23;8.48;;;7.70;;
22965;SDS011;11649;48.090;9.754;2023-05-06T07:39:50;11.20;;;8.50;;
22965;SDS011;11649;48.090;9.754;2023-05-06T07:42:17;7.63;;;6.93;;
22965;SDS011;11649;48.090;9.754;2023-05-06T07:44:44;7.60;;;6.80;;
22965;SDS011;11649;48.090;9.754;2023-05-06T07:47:10;8.05;;;6.75;;
22965;SDS011;11649;48.090;9.754;2023-05-06T07:49:39;7.47;;;6.68;;
22965;SDS011;11649;48.090;9.754;2023-05-06T07:52:06;7.82;;;7.05;;
22965;SDS011;11649;48.090;9.754;2023-05-06T07:54:33;8.88;;;7.97;;
22965;SDS011;11649;48.090;9.754;2023-05-06T07:56:59;7.32;;;6.63;;
22965;SDS011;11649;48.090;9.754;2023-05-06T07:59:27;6.80;;;6.20;;
22965;SDS011;11649;48.090;9.754;2023-05-06T08:01:54;7.68;;;6.40;;
22965;SDS011;11649;48.090;9.754;2023-05-06T08:04:21;8.27;;;6.82;;
22965;SDS011;11649;48.090;9.754;2023-05-06T08:06:48;7.03;;;6.32;;
22965;SDS011;11649;48.090;9.754;2023-05-06T08:09:15;6.82;;;6.22;;
22965;SDS011;11649;48.090;9.754;2023-05-06T08:11:48;6.18;;;5.55;;
22965;SDS011;11649;48.090;9.754;2023-05-06T08:14:15;5.90;;;5.20;;
22965;SDS011;11649;48.090;9.754;2023-05-06T08:16:43;5.25;;;4.75;;
22965;SDS011;11649;48.090;9.754;2023-05-06T08:19:10;6.07;;;5.47;;
22965;SDS011;11649;48.090;9.754;2023-05-06T08:21:37;5.60;;;5.00;;
22965;SDS011;11649;48.090;9.754;2023-05-06T08:24:04;6.03;;;4.88;;
22965;SDS011;11649;48.090;9.754;2023-05-06T08:26:30;5.65;;;5.15;;
22965;SDS011;11649;48.090;9.754;2023-05-06T08:28:57;6.72;;;5.15;;
22965;SDS011;11649;48.090;9.754;2023-05-06T08:31:24;6.72;;;5.38;;
22965;SDS011;11649;48.090;9.754;2023-05-06T08:33:52;5.18;;;4.45;;
22965;SDS011;11649;48.090;9.754;2023-05-06T08:36:20;5.47;;;4.43;;
22965;SDS011;11649;48.090;9.754;2023-05-06T08:38:47;4.78;;;4.18;;
22965;SDS011;11649;48.090;9.754;2023-05-06T08:41:16;4.60;;;4.10;;
22965;SDS011;11649;48.090;9.754;2023-05-06T08:43:45;6.13;;;5.15;;
22965;SDS011;11649;48.090;9.754;2023-05-06T08:46:14;6.15;;;4.60;;
22965;SDS011;11649;48.090;9.754;2023-05-06T08:48:42;7.20;;;5.47;;
22965;SDS011;11649;48.090;9.754;2023-05-06T08:51:09;6.82;;;4.40;;
22965;SDS011;11649;48.090;9.754;2023-05-06T08:53:46;5.78;;;4.07;;
22965;SDS011;11649;48.090;9.754;2023-05-06T08:56:14;6.32;;;4.63;;
22965;SDS011;11649;48.090;9.754;2023-05-06T08:58:43;8.30;;;4.78;;
22965;SDS011;11649;48.090;9.754;2023-05-06T09:01:12;6.72;;;5.22;;
22965;SDS011;11649;48.090;9.754;2023-05-06T09:03:40;5.28;;;4.32;;
22965;SDS011;11649;48.090;9.754;2023-05-06T09:06:09;5.00;;;4.18;;
22965;SDS011;11649;48.090;9.754;2023-05-06T09:08:36;4.97;;;4.47;;
22965;SDS011;11649;48.090;9.754;2023-05-06T09:11:17;5.35;;;4.07;;
22965;SDS011;11649;48.090;9.754;2023-05-06T09:13:45;4.45;;;3.60;;
22965;SDS011;11649;48.090;9.754;2023-05-06T09:16:25;5.25;;;3.20;;
22965;SDS011;11649;48.090;9.754;2023-05-06T09:18:53;7.60;;;4.00;;
22965;SDS011;11649;48.090;9.754;2023-05-06T09:21:20;4.28;;;2.90;;
22965;SDS011;11649;48.090;9.754;2023-05-06T09:23:54;4.45;;;2.97;;
22965;SDS011;11649;48.090;9.754;2023-05-06T09:26:21;5.18;;;3.20;;
22965;SDS011;11649;48.090;9.754;2023-05-06T09:28:49;3.50;;;3.20;;
22965;SDS011;11649;48.090;9.754;2023-05-06T09:31:16;3.35;;;2.42;;
22965;SDS011;11649;48.090;9.754;2023-05-06T09:33:43;5.28;;;3.10;;
22965;SDS011;11649;48.090;9.754;2023-05-06T09:36:10;4.45;;;2.40;;
22965;SDS011;11649;48.090;9.754;2023-05-06T09:38:39;2.65;;;2.30;;
22965;SDS011;11649;48.090;9.754;2023-05-06T09:41:06;4.22;;;1.98;;
22965;SDS011;11649;48.090;9.754;2023-05-06T09:43:33;3.05;;;1.88;;
22965;SDS011;11649;48.090;9.754;2023-05-06T09:46:02;3.80;;;2.15;;
22965;SDS011;11649;48.090;9.754;2023-05-06T09:48:31;3.88;;;2.20;;
22965;SDS011;11649;48.090;9.754;2023-05-06T09:50:58;3.60;;;2.00;;
22965;SDS011;11649;48.090;9.754;2023-05-06T09:53:26;2.53;;;2.30;;
22965;SDS011;11649;48.090;9.754;2023-05-06T09:55:54;2.60;;;2.00;;
22965;SDS011;11649;48.090;9.754;2023-05-06T09:58:23;2.90;;;1.88;;
22965;SDS011;11649;48.090;9.754;2023-05-06T10:00:51;3.55;;;2.00;;
22965;SDS011;11649;48.090;9.754;2023-05-06T10:03:18;2.50;;;1.88;;
22965;SDS011;11649;48.090;9.754;2023-05-06T10:05:47;4.90;;;2.10;;
22965;SDS011;11649;48.090;9.754;2023-05-06T10:08:14;3.03;;;1.80;;
22965;SDS011;11649;48.090;9.754;2023-05-06T10:10:44;2.95;;;1.90;;
22965;SDS011;11649;48.090;9.754;2023-05-06T10:13:14;3.03;;;1.83;;
22965;SDS011;11649;48.090;9.754;2023-05-06T10:15:43;2.88;;;2.05;;
22965;SDS011;11649;48.090;9.754;2023-05-06T10:18:13;3.38;;;1.85;;
22965;SDS011;11649;48.090;9.754;2023-05-06T10:20:42;3.40;;;1.90;;
22965;SDS011;11649;48.090;9.754;2023-05-06T10:23:33;2.63;;;2.15;;
22965;SDS011;11649;48.090;9.754;2023-05-06T10:26:06;3.47;;;2.15;;
22965;SDS011;11649;48.090;9.754;2023-05-06T10:28:38;6.55;;;2.13;;
22965;SDS011;11649;48.090;9.754;2023-05-06T10:31:09;5.45;;;2.50;;
22965;SDS011;11649;48.090;9.754;2023-05-06T10:33:39;3.90;;;2.13;;
22965;SDS011;11649;48.090;9.754;2023-05-06T10:36:14;2.75;;;2.17;;
22965;SDS011;11649;48.090;9.754;2023-05-06T10:38:56;2.80;;;1.90;;
22965;SDS011;11649;48.090;9.754;2023-05-06T10:41:26;3.33;;;2.20;;
22965;SDS011;11649;48.090;9.754;2023-05-06T10:43:54;4.18;;;1.80;;
22965;SDS011;11649;48.090;9.754;2023-05-06T10:46:22;2.40;;;1.75;;
22965;SDS011;11649;48.090;9.754;2023-05-06T10:51:37;2.80;;;1.70;;
22965;SDS011;11649;48.090;9.754;2023-05-06T10:54:05;4.72;;;1.90;;
22965;SDS011;11649;48.090;9.754;2023-05-06T10:56:33;2.83;;;1.80;;
22965;SDS011;11649;48.090;9.754;2023-05-06T10:59:22;4.65;;;1.73;;
22965;SDS011;11649;48.090;9.754;2023-05-06T11:02:06;2.88;;;1.50;;
22965;SDS011;11649;48.090;9.754;2023-05-06T11:04:34;4.97;;;2.50;;
22965;SDS011;11649;48.090;9.754;2023-05-06T11:07:06;2.10;;;1.85;;
22965;SDS011;11649;48.090;9.754;2023-05-06T11:09:33;2.13;;;1.58;;
22965;SDS011;11649;48.090;9.754;2023-05-06T11:12:49;5.95;;;1.90;;
22965;SDS011;11649;48.090;9.754;2023-05-06T11:15:18;1.55;;;1.30;;
22965;SDS011;11649;48.090;9.754;2023-05-06T11:20:59;2.45;;;1.27;;
22965;SDS011;11649;48.090;9.754;2023-05-06T11:26:08;3.60;;;1.40;;
22965;SDS011;11649;48.090;9.754;2023-05-06T11:28:35;1.88;;;1.40;;
22965;SDS011;11649;48.090;9.754;2023-05-06T11:31:02;2.90;;;1.40;;
22965;SDS011;11649;48.090;9.754;2023-05-06T11:33:33;2.45;;;1.40;;
22965;SDS011;11649;48.090;9.754;2023-05-06T11:36:04;1.60;;;1.35;;
22965;SDS011;11649;48.090;9.754;2023-05-06T11:38:45;3.50;;;1.50;;
22965;SDS011;11649;48.090;9.754;2023-05-06T11:41:14;4.85;;;1.45;;
22965;SDS011;11649;48.090;9.754;2023-05-06T11:43:45;4.38;;;1.40;;
22965;SDS011;11649;48.090;9.754;2023-05-06T11:46:15;1.65;;;1.40;;
22965;SDS011;11649;48.090;9.754;2023-05-06T11:48:43;3.08;;;1.30;;
22965;SDS011;11649;48.090;9.754;2023-05-06T11:51:10;2.17;;;1.25;;
22965;SDS011;11649;48.090;9.754;2023-05-06T11:53:37;2.75;;;1.40;;
22965;SDS011;11649;48.090;9.754;2023-05-06T11:56:07;2.13;;;1.45;;
22965;SDS011;11649;48.090;9.754;2023-05-06T11:58:33;2.75;;;1.73;;
22965;SDS011;11649;48.090;9.754;2023-05-06T12:01:01;3.97;;;1.40;;
22965;SDS011;11649;48.090;9.754;2023-05-06T12:03:29;3.05;;;1.30;;
22965;SDS011;11649;48.090;9.754;2023-05-06T12:05:58;2.85;;;1.40;;
22965;SDS011;11649;48.090;9.754;2023-05-06T12:08:29;1.73;;;1.30;;
22965;SDS011;11649;48.090;9.754;2023-05-06T12:10:58;2.90;;;1.45;;
22965;SDS011;11649;48.090;9.754;2023-05-06T12:13:27;4.57;;;1.20;;
22965;SDS011;11649;48.090;9.754;2023-05-06T12:15:54;2.30;;;1.20;;
22965;SDS011;11649;48.090;9.754;2023-05-06T12:18:24;3.17;;;1.48;;
22965;SDS011;11649;48.090;9.754;2023-05-06T12:20:55;2.25;;;1.15;;
22965;SDS011;11649;48.090;9.754;2023-05-06T12:23:22;2.25;;;1.35;;
22965;SDS011;11649;48.090;9.754;2023-05-06T12:26:04;2.88;;;1.33;;
22965;SDS011;11649;48.090;9.754;2023-05-06T12:28:34;3.03;;;1.20;;
22965;SDS011;11649;48.090;9.754;2023-05-06T12:31:20;1.30;;;1.17;;
22965;SDS011;11649;48.090;9.754;2023-05-06T12:33:48;2.20;;;0.90;;
22965;SDS011;11649;48.090;9.754;2023-05-06T12:36:16;1.98;;;0.90;;
22965;SDS011;11649;48.090;9.754;2023-05-06T12:38:53;3.55;;;1.42;;
22965;SDS011;11649;48.090;9.754;2023-05-06T12:41:35;1.77;;;1.00;;
22965;SDS011;11649;48.090;9.754;2023-05-06T12:49:45;2.60;;;1.50;;
22965;SDS011;11649;48.090;9.754;2023-05-06T12:52:13;1.42;;;1.00;;
22965;SDS011;11649;48.090;9.754;2023-05-06T12:54:41;2.22;;;1.40;;
22965;SDS011;11649;48.090;9.754;2023-05-06T12:57:08;4.05;;;2.13;;
22965;SDS011;11649;48.090;9.754;2023-05-06T12:59:35;6.32;;;2.72;;
22965;SDS011;11649;48.090;9.754;2023-05-06T13:02:02;3.13;;;1.10;;
22965;SDS011;11649;48.090;9.754;2023-05-06T13:04:30;4.80;;;2.13;;
22965;SDS011;11649;48.090;9.754;2023-05-06T13:06:57;3.17;;;1.13;;
22965;SDS011;11649;48.090;9.754;2023-05-06T13:09:24;1.90;;;1.17;;
22965;SDS011;11649;48.090;9.754;2023-05-06T13:11:51;2.55;;;1.00;;
22965;SDS011;11649;48.090;9.754;2023-05-06T13:14:18;1.77;;;1.10;;
22965;SDS011;11649;48.090;9.754;2023-05-06T13:16:46;7.10;;;1.65;;
22965;SDS011;11649;48.090;9.754;2023-05-06T13:19:13;4.45;;;2.00;;
22965;SDS011;11649;48.090;9.754;2023-05-06T13:21:57;1.67;;;1.00;;
22965;SDS011;11649;48.090;9.754;2023-05-06T13:24:24;1.58;;;1.00;;
22965;SDS011;11649;48.090;9.754;2023-05-06T13:35:02;1.85;;;1.00;;
22965;SDS011;11649;48.090;9.754;2023-05-06T13:37:30;1.52;;;1.00;;
22965;SDS011;11649;48.090;9.754;2023-05-06T13:42:40;2.88;;;1.20;;
22965;SDS011;11649;48.090;9.754;2023-05-06T13:55:13;2.03;;;0.95;;
22965;SDS011;11649;48.090;9.754;2023-05-06T13:57:40;2.05;;;1.23;;
22965;SDS011;11649;48.090;9.754;2023-05-06T14:00:07;2.45;;;0.90;;
22965;SDS011;11649;48.090;9.754;2023-05-06T14:02:35;1.85;;;1.10;;
22965;SDS011;11649;48.090;9.754;2023-05-06T14:05:02;1.55;;;1.10;;
22965;SDS011;11649;48.090;9.754;2023-05-06T14:07:29;3.15;;;1.30;;
22965;SDS011;11649;48.090;9.754;2023-05-06T14:09:56;1.98;;;0.90;;
22965;SDS011;11649;48.090;9.754;2023-05-06T14:12:23;2.50;;;1.20;;
22965;SDS011;11649;48.090;9.754;2023-05-06T14:14:50;1.80;;;1.10;;
22965;SDS011;11649;48.090;9.754;2023-05-06T14:17:17;2.38;;;1.30;;
22965;SDS011;11649;48.090;9.754;2023-05-06T14:19:44;3.97;;;1.20;;
22965;SDS011;11649;48.090;9.754;2023-05-06T14:22:11;6.07;;;2.60;;
22965;SDS011;11649;48.090;9.754;2023-05-06T14:24:37;2.78;;;1.30;;
22965;SDS011;11649;48.090;9.754;2023-05-06T14:27:04;2.08;;;1.40;;
22965;SDS011;11649;48.090;9.754;2023-05-06T14:29:31;4.20;;;1.40;;
22965;SDS011;11649;48.090;9.754;2023-05-06T14:31:58;5.25;;;2.92;;
22965;SDS011;11649;48.090;9.754;2023-05-06T14:34:25;3.13;;;1.13;;
22965;SDS011;11649;48.090;9.754;2023-05-06T14:36:52;2.28;;;1.30;;
22965;SDS011;11649;48.090;9.754;2023-05-06T14:39:19;2.13;;;1.15;;
22965;SDS011;11649;48.090;9.754;2023-05-06T14:41:46;1.67;;;1.20;;
22965;SDS011;11649;48.090;9.754;2023-05-06T14:44:12;5.57;;;1.70;;
22965;SDS011;11649;48.090;9.754;2023-05-06T14:46:40;2.85;;;1.30;;
22965;SDS011;11649;48.090;9.754;2023-05-06T14:49:07;6.68;;;2.80;;
22965;SDS011;11649;48.090;9.754;2023-05-06T14:51:33;1.90;;;1.10;;
22965;SDS011;11649;48.090;9.754;2023-05-06T14:54:00;3.33;;;1.10;;
22965;SDS011;11649;48.090;9.754;2023-05-06T14:56:27;3.22;;;1.40;;
22965;SDS011;11649;48.090;9.754;2023-05-06T14:58:54;4.07;;;2.15;;
22965;SDS011;11649;48.090;9.754;2023-05-06T15:01:21;3.63;;;1.48;;
22965;SDS011;11649;48.090;9.754;2023-05-06T15:03:48;2.92;;;1.40;;
22965;SDS011;11649;48.090;9.754;2023-05-06T15:06:17;1.70;;;1.02;;
22965;SDS011;11649;48.090;9.754;2023-05-06T15:08:44;2.67;;;1.08;;
22965;SDS011;11649;48.090;9.754;2023-05-06T15:11:11;2.88;;;1.00;;
22965;SDS011;11649;48.090;9.754;2023-05-06T15:13:38;2.05;;;0.90;;
22965;SDS011;11649;48.090;9.754;2023-05-06T15:16:05;2.75;;;1.20;;
22965;SDS011;11649;48.090;9.754;2023-05-06T15:18:35;2.92;;;1.05;;
22965;SDS011;11649;48.090;9.754;2023-05-06T15:21:03;1.52;;;1.00;;